sensor_id;sensor_type;location;lat;lon;timestamp;P1;durP1;ratioP1;P2;durP2;ratioP2
57573;SDS011;68988;49.000;21.242;2023-07-13T00:01:11;4.80;;;4.50;;
57573;SDS011;68988;49.000;21.242;2023-07-13T00:03:41;5.35;;;4.88;;
57573;SDS011;68988;49.000;21.242;2023-07-13T00:06:06;5.43;;;5.03;;
57573;SDS011;68988;49.000;21.242;2023-07-13T00:08:32;6.13;;;5.10;;
57573;SDS011;68988;49.000;21.242;2023-07-13T00:11:02;5.80;;;5.30;;
57573;SDS011;68988;49.000;21.242;2023-07-13T00:13:29;4.70;;;4.40;;
57573;SDS011;68988;49.000;21.242;2023-07-13T00:15:56;5.30;;;5.00;;
57573;SDS011;68988;49.000;21.242;2023-07-13T00:18:23;6.22;;;4.78;;
57573;SDS011;68988;49.000;21.242;2023-07-13T00:20:48;5.10;;;4.70;;
57573;SDS011;68988;49.000;21.242;2023-07-13T00:23:14;5.43;;;4.60;;
57573;SDS011;68988;49.000;21.242;2023-07-13T00:25:39;6.55;;;5.20;;
57573;SDS011;68988;49.000;21.242;2023-07-13T00:28:05;6.28;;;4.60;;
57573;SDS011;68988;49.000;21.242;2023-07-13T00:30:30;5.00;;;4.30;;
57573;SDS011;68988;49.000;21.242;2023-07-13T00:32:56;5.35;;;4.93;;
57573;SDS011;68988;49.000;21.242;2023-07-13T00:35:21;5.38;;;4.78;;
57573;SDS011;68988;49.000;21.242;2023-07-13T00:37:47;4.85;;;4.55;;
57573;SDS011;68988;49.000;21.242;2023-07-13T00:40:13;5.18;;;4.78;;
57573;SDS011;68988;49.000;21.242;2023-07-13T00:42:39;4.93;;;4.53;;
57573;SDS011;68988;49.000;21.242;2023-07-13T00:47:37;5.68;;;5.10;;
57573;SDS011;68988;49.000;21.242;2023-07-13T00:50:06;5.25;;;4.85;;
57573;SDS011;68988;49.000;21.242;2023-07-13T00:52:35;5.38;;;4.85;;
57573;SDS011;68988;49.000;21.242;2023-07-13T00:55:02;5.50;;;4.38;;
57573;SDS011;68988;49.000;21.242;2023-07-13T00:57:28;4.93;;;4.53;;
57573;SDS011;68988;49.000;21.242;2023-07-13T00:59:55;5.18;;;4.80;;
57573;SDS011;68988;49.000;21.242;2023-07-13T01:02:24;4.80;;;4.50;;
57573;SDS011;68988;49.000;21.242;2023-07-13T01:04:50;5.13;;;4.80;;
57573;SDS011;68988;49.000;21.242;2023-07-13T01:07:16;4.55;;;4.25;;
57573;SDS011;68988;49.000;21.242;2023-07-13T01:09:44;5.30;;;4.80;;
57573;SDS011;68988;49.000;21.242;2023-07-13T01:12:10;5.30;;;4.90;;
57573;SDS011;68988;49.000;21.242;2023-07-13T01:14:35;5.35;;;4.90;;
57573;SDS011;68988;49.000;21.242;2023-07-13T01:17:01;4.90;;;4.47;;
57573;SDS011;68988;49.000;21.242;2023-07-13T01:19:33;5.90;;;4.78;;
57573;SDS011;68988;49.000;21.242;2023-07-13T01:22:03;6.40;;;4.80;;
57573;SDS011;68988;49.000;21.242;2023-07-13T01:24:34;5.03;;;4.72;;
57573;SDS011;68988;49.000;21.242;2023-07-13T01:27:01;5.43;;;4.93;;
57573;SDS011;68988;49.000;21.242;2023-07-13T01:29:26;4.40;;;4.10;;
57573;SDS011;68988;49.000;21.242;2023-07-13T01:31:52;5.32;;;4.85;;
57573;SDS011;68988;49.000;21.242;2023-07-13T01:34:17;5.10;;;4.70;;
57573;SDS011;68988;49.000;21.242;2023-07-13T01:36:42;6.63;;;4.60;;
57573;SDS011;68988;49.000;21.242;2023-07-13T01:39:08;5.22;;;4.82;;
57573;SDS011;68988;49.000;21.242;2023-07-13T01:41:33;5.15;;;4.80;;
57573;SDS011;68988;49.000;21.242;2023-07-13T01:43:59;4.35;;;4.00;;
57573;SDS011;68988;49.000;21.242;2023-07-13T01:46:24;4.93;;;4.63;;
57573;SDS011;68988;49.000;21.242;2023-07-13T01:48:50;5.47;;;4.95;;
57573;SDS011;68988;49.000;21.242;2023-07-13T01:51:17;5.47;;;4.97;;
57573;SDS011;68988;49.000;21.242;2023-07-13T01:53:43;6.22;;;4.90;;
57573;SDS011;68988;49.000;21.242;2023-07-13T01:56:08;5.25;;;4.85;;
57573;SDS011;68988;49.000;21.242;2023-07-13T01:58:34;5.10;;;4.70;;
57573;SDS011;68988;49.000;21.242;2023-07-13T02:00:59;5.00;;;4.60;;
57573;SDS011;68988;49.000;21.242;2023-07-13T02:03:24;5.05;;;4.60;;
57573;SDS011;68988;49.000;21.242;2023-07-13T02:05:50;5.20;;;4.70;;
57573;SDS011;68988;49.000;21.242;2023-07-13T02:08:15;4.90;;;4.50;;
57573;SDS011;68988;49.000;21.242;2023-07-13T02:10:40;8.50;;;4.65;;
57573;SDS011;68988;49.000;21.242;2023-07-13T02:13:06;4.57;;;4.30;;
57573;SDS011;68988;49.000;21.242;2023-07-13T02:15:31;6.38;;;4.38;;
57573;SDS011;68988;49.000;21.242;2023-07-13T02:17:57;9.32;;;4.30;;
57573;SDS011;68988;49.000;21.242;2023-07-13T02:20:23;5.97;;;5.43;;
57573;SDS011;68988;49.000;21.242;2023-07-13T02:22:49;7.00;;;4.60;;
57573;SDS011;68988;49.000;21.242;2023-07-13T02:25:15;5.13;;;4.20;;
57573;SDS011;68988;49.000;21.242;2023-07-13T02:27:40;4.68;;;4.28;;
57573;SDS011;68988;49.000;21.242;2023-07-13T02:30:06;4.80;;;4.40;;
57573;SDS011;68988;49.000;21.242;2023-07-13T02:32:32;5.00;;;4.60;;
57573;SDS011;68988;49.000;21.242;2023-07-13T02:34:58;4.88;;;4.57;;
57573;SDS011;68988;49.000;21.242;2023-07-13T02:37:24;5.03;;;4.53;;
57573;SDS011;68988;49.000;21.242;2023-07-13T02:39:49;5.10;;;4.70;;
57573;SDS011;68988;49.000;21.242;2023-07-13T02:42:15;4.70;;;4.40;;
57573;SDS011;68988;49.000;21.242;2023-07-13T02:44:40;5.13;;;4.38;;
57573;SDS011;68988;49.000;21.242;2023-07-13T02:47:06;5.07;;;4.55;;
57573;SDS011;68988;49.000;21.242;2023-07-13T02:49:31;4.68;;;4.30;;
57573;SDS011;68988;49.000;21.242;2023-07-13T02:51:57;4.95;;;4.63;;
57573;SDS011;68988;49.000;21.242;2023-07-13T02:54:22;4.72;;;4.32;;
57573;SDS011;68988;49.000;21.242;2023-07-13T02:56:48;4.55;;;4.25;;
57573;SDS011;68988;49.000;21.242;2023-07-13T02:59:13;7.97;;;4.55;;
57573;SDS011;68988;49.000;21.242;2023-07-13T03:01:39;5.13;;;4.82;;
57573;SDS011;68988;49.000;21.242;2023-07-13T03:04:05;4.72;;;4.43;;
57573;SDS011;68988;49.000;21.242;2023-07-13T03:06:31;5.07;;;4.68;;
57573;SDS011;68988;49.000;21.242;2023-07-13T03:08:58;4.75;;;4.35;;
57573;SDS011;68988;49.000;21.242;2023-07-13T03:11:24;5.05;;;4.50;;
57573;SDS011;68988;49.000;21.242;2023-07-13T03:13:51;5.82;;;5.43;;
57573;SDS011;68988;49.000;21.242;2023-07-13T03:16:17;5.00;;;4.70;;
57573;SDS011;68988;49.000;21.242;2023-07-13T03:18:42;4.75;;;4.35;;
57573;SDS011;68988;49.000;21.242;2023-07-13T03:21:08;6.32;;;4.28;;
57573;SDS011;68988;49.000;21.242;2023-07-13T03:23:33;5.00;;;4.70;;
57573;SDS011;68988;49.000;21.242;2023-07-13T03:26:03;5.65;;;5.22;;
57573;SDS011;68988;49.000;21.242;2023-07-13T03:28:31;5.10;;;4.80;;
57573;SDS011;68988;49.000;21.242;2023-07-13T03:31:09;5.60;;;5.20;;
57573;SDS011;68988;49.000;21.242;2023-07-13T03:33:37;5.93;;;5.38;;
57573;SDS011;68988;49.000;21.242;2023-07-13T03:36:03;5.55;;;5.05;;
57573;SDS011;68988;49.000;21.242;2023-07-13T03:38:32;5.45;;;4.95;;
57573;SDS011;68988;49.000;21.242;2023-07-13T03:40:57;5.60;;;5.07;;
57573;SDS011;68988;49.000;21.242;2023-07-13T03:43:23;7.78;;;5.88;;
57573;SDS011;68988;49.000;21.242;2023-07-13T03:45:48;6.47;;;5.72;;
57573;SDS011;68988;49.000;21.242;2023-07-13T03:48:14;7.95;;;5.90;;
57573;SDS011;68988;49.000;21.242;2023-07-13T03:50:40;6.32;;;5.70;;
57573;SDS011;68988;49.000;21.242;2023-07-13T03:53:05;7.20;;;5.50;;
57573;SDS011;68988;49.000;21.242;2023-07-13T03:55:31;5.93;;;5.22;;
57573;SDS011;68988;49.000;21.242;2023-07-13T04:00:49;6.43;;;5.85;;
57573;SDS011;68988;49.000;21.242;2023-07-13T04:03:15;6.05;;;5.53;;
57573;SDS011;68988;49.000;21.242;2023-07-13T04:05:41;6.85;;;6.20;;
57573;SDS011;68988;49.000;21.242;2023-07-13T04:08:06;6.65;;;5.93;;
57573;SDS011;68988;49.000;21.242;2023-07-13T04:10:32;7.05;;;6.35;;
57573;SDS011;68988;49.000;21.242;2023-07-13T04:12:57;6.40;;;5.90;;
57573;SDS011;68988;49.000;21.242;2023-07-13T04:15:22;7.85;;;6.05;;
57573;SDS011;68988;49.000;21.242;2023-07-13T04:17:48;6.78;;;6.28;;
57573;SDS011;68988;49.000;21.242;2023-07-13T04:20:13;8.18;;;5.95;;
57573;SDS011;68988;49.000;21.242;2023-07-13T04:22:38;7.78;;;6.68;;
57573;SDS011;68988;49.000;21.242;2023-07-13T04:25:04;9.63;;;6.75;;
57573;SDS011;68988;49.000;21.242;2023-07-13T04:27:30;10.52;;;6.45;;
57573;SDS011;68988;49.000;21.242;2023-07-13T04:29:55;12.43;;;7.15;;
57573;SDS011;68988;49.000;21.242;2023-07-13T04:32:21;9.77;;;6.85;;
57573;SDS011;68988;49.000;21.242;2023-07-13T04:34:46;9.35;;;7.20;;
57573;SDS011;68988;49.000;21.242;2023-07-13T04:37:11;11.48;;;6.78;;
57573;SDS011;68988;49.000;21.242;2023-07-13T04:39:37;7.80;;;7.00;;
57573;SDS011;68988;49.000;21.242;2023-07-13T04:42:03;18.65;;;9.27;;
57573;SDS011;68988;49.000;21.242;2023-07-13T04:44:28;11.80;;;9.35;;
57573;SDS011;68988;49.000;21.242;2023-07-13T04:46:54;16.38;;;9.70;;
57573;SDS011;68988;49.000;21.242;2023-07-13T04:49:19;16.33;;;9.68;;
57573;SDS011;68988;49.000;21.242;2023-07-13T04:51:45;15.02;;;8.30;;
57573;SDS011;68988;49.000;21.242;2023-07-13T04:54:10;11.57;;;9.25;;
57573;SDS011;68988;49.000;21.242;2023-07-13T04:56:35;13.00;;;9.57;;
57573;SDS011;68988;49.000;21.242;2023-07-13T04:59:01;15.50;;;8.93;;
57573;SDS011;68988;49.000;21.242;2023-07-13T05:01:27;10.88;;;9.77;;
57573;SDS011;68988;49.000;21.242;2023-07-13T05:03:52;13.38;;;10.30;;
57573;SDS011;68988;49.000;21.242;2023-07-13T05:06:18;16.30;;;10.10;;
57573;SDS011;68988;49.000;21.242;2023-07-13T05:08:43;11.27;;;9.77;;
57573;SDS011;68988;49.000;21.242;2023-07-13T05:11:08;15.98;;;10.00;;
57573;SDS011;68988;49.000;21.242;2023-07-13T05:13:34;10.82;;;9.07;;
57573;SDS011;68988;49.000;21.242;2023-07-13T05:16:00;11.80;;;9.80;;
57573;SDS011;68988;49.000;21.242;2023-07-13T05:18:27;10.00;;;9.13;;
57573;SDS011;68988;49.000;21.242;2023-07-13T05:20:57;15.50;;;9.02;;
57573;SDS011;68988;49.000;21.242;2023-07-13T05:23:23;15.52;;;11.50;;
57573;SDS011;68988;49.000;21.242;2023-07-13T05:25:48;11.93;;;10.20;;
57573;SDS011;68988;49.000;21.242;2023-07-13T05:28:14;17.77;;;11.50;;
57573;SDS011;68988;49.000;21.242;2023-07-13T05:30:39;11.77;;;10.68;;
57573;SDS011;68988;49.000;21.242;2023-07-13T05:33:04;11.93;;;10.82;;
57573;SDS011;68988;49.000;21.242;2023-07-13T05:35:30;22.17;;;11.15;;
57573;SDS011;68988;49.000;21.242;2023-07-13T05:37:55;22.52;;;11.73;;
57573;SDS011;68988;49.000;21.242;2023-07-13T05:40:20;15.27;;;11.60;;
57573;SDS011;68988;49.000;21.242;2023-07-13T05:42:46;11.18;;;10.18;;
57573;SDS011;68988;49.000;21.242;2023-07-13T05:45:11;15.75;;;9.90;;
57573;SDS011;68988;49.000;21.242;2023-07-13T05:47:36;10.07;;;9.07;;
57573;SDS011;68988;49.000;21.242;2023-07-13T05:50:02;8.75;;;8.35;;
57573;SDS011;68988;49.000;21.242;2023-07-13T05:52:27;13.38;;;9.40;;
57573;SDS011;68988;49.000;21.242;2023-07-13T05:54:53;9.93;;;8.90;;
57573;SDS011;68988;49.000;21.242;2023-07-13T05:57:18;12.55;;;9.68;;
57573;SDS011;68988;49.000;21.242;2023-07-13T05:59:43;11.77;;;10.75;;
57573;SDS011;68988;49.000;21.242;2023-07-13T06:02:09;14.27;;;10.40;;
57573;SDS011;68988;49.000;21.242;2023-07-13T06:04:35;12.10;;;10.57;;
57573;SDS011;68988;49.000;21.242;2023-07-13T06:07:01;12.43;;;10.98;;
57573;SDS011;68988;49.000;21.242;2023-07-13T06:09:26;12.75;;;11.52;;
57573;SDS011;68988;49.000;21.242;2023-07-13T06:11:52;13.90;;;11.50;;
57573;SDS011;68988;49.000;21.242;2023-07-13T06:14:17;14.05;;;11.25;;
57573;SDS011;68988;49.000;21.242;2023-07-13T06:16:43;12.35;;;10.80;;
57573;SDS011;68988;49.000;21.242;2023-07-13T06:19:08;16.13;;;11.38;;
57573;SDS011;68988;49.000;21.242;2023-07-13T06:21:33;10.80;;;9.90;;
57573;SDS011;68988;49.000;21.242;2023-07-13T06:23:59;16.90;;;9.70;;
57573;SDS011;68988;49.000;21.242;2023-07-13T06:26:24;11.60;;;10.68;;
57573;SDS011;68988;49.000;21.242;2023-07-13T06:28:50;14.82;;;11.20;;
57573;SDS011;68988;49.000;21.242;2023-07-13T06:31:15;16.98;;;11.68;;
57573;SDS011;68988;49.000;21.242;2023-07-13T06:33:44;17.17;;;10.60;;
57573;SDS011;68988;49.000;21.242;2023-07-13T06:36:09;11.57;;;10.07;;
57573;SDS011;68988;49.000;21.242;2023-07-13T06:38:35;15.13;;;10.02;;
57573;SDS011;68988;49.000;21.242;2023-07-13T06:41:01;12.00;;;9.82;;
57573;SDS011;68988;49.000;21.242;2023-07-13T06:43:26;15.27;;;10.45;;
57573;SDS011;68988;49.000;21.242;2023-07-13T06:45:54;19.23;;;11.07;;
57573;SDS011;68988;49.000;21.242;2023-07-13T06:48:20;13.02;;;10.98;;
57573;SDS011;68988;49.000;21.242;2023-07-13T06:50:48;16.58;;;11.30;;
57573;SDS011;68988;49.000;21.242;2023-07-13T06:53:15;11.80;;;10.70;;
57573;SDS011;68988;49.000;21.242;2023-07-13T06:55:40;13.25;;;11.43;;
57573;SDS011;68988;49.000;21.242;2023-07-13T06:58:08;14.15;;;11.30;;
57573;SDS011;68988;49.000;21.242;2023-07-13T07:00:34;16.98;;;11.55;;
57573;SDS011;68988;49.000;21.242;2023-07-13T07:02:59;12.43;;;10.52;;
57573;SDS011;68988;49.000;21.242;2023-07-13T07:05:25;13.18;;;10.45;;
57573;SDS011;68988;49.000;21.242;2023-07-13T07:07:50;11.80;;;10.70;;
57573;SDS011;68988;49.000;21.242;2023-07-13T07:10:17;11.57;;;10.48;;
57573;SDS011;68988;49.000;21.242;2023-07-13T07:12:43;11.85;;;10.57;;
57573;SDS011;68988;49.000;21.242;2023-07-13T07:15:09;11.48;;;10.45;;
57573;SDS011;68988;49.000;21.242;2023-07-13T07:17:35;17.65;;;10.63;;
57573;SDS011;68988;49.000;21.242;2023-07-13T07:20:00;11.40;;;9.75;;
57573;SDS011;68988;49.000;21.242;2023-07-13T07:22:25;13.23;;;10.88;;
57573;SDS011;68988;49.000;21.242;2023-07-13T07:24:52;25.05;;;10.98;;
57573;SDS011;68988;49.000;21.242;2023-07-13T07:27:18;17.33;;;10.75;;
57573;SDS011;68988;49.000;21.242;2023-07-13T07:29:44;13.20;;;10.32;;
57573;SDS011;68988;49.000;21.242;2023-07-13T07:32:09;14.05;;;11.18;;
57573;SDS011;68988;49.000;21.242;2023-07-13T07:34:35;11.65;;;10.27;;
57573;SDS011;68988;49.000;21.242;2023-07-13T07:37:00;13.48;;;10.25;;
57573;SDS011;68988;49.000;21.242;2023-07-13T07:39:26;11.52;;;10.52;;
57573;SDS011;68988;49.000;21.242;2023-07-13T07:41:52;12.18;;;10.55;;
57573;SDS011;68988;49.000;21.242;2023-07-13T07:44:18;13.32;;;10.50;;
57573;SDS011;68988;49.000;21.242;2023-07-13T07:46:43;20.33;;;10.70;;
57573;SDS011;68988;49.000;21.242;2023-07-13T07:49:09;28.85;;;11.30;;
57573;SDS011;68988;49.000;21.242;2023-07-13T07:51:34;23.73;;;10.80;;
57573;SDS011;68988;49.000;21.242;2023-07-13T07:53:59;14.07;;;10.05;;
57573;SDS011;68988;49.000;21.242;2023-07-13T07:56:25;13.32;;;10.13;;
57573;SDS011;68988;49.000;21.242;2023-07-13T07:58:50;17.20;;;11.07;;
57573;SDS011;68988;49.000;21.242;2023-07-13T08:01:16;14.40;;;10.60;;
57573;SDS011;68988;49.000;21.242;2023-07-13T08:03:44;13.18;;;11.35;;
57573;SDS011;68988;49.000;21.242;2023-07-13T08:06:10;14.95;;;10.55;;
57573;SDS011;68988;49.000;21.242;2023-07-13T08:08:36;22.27;;;10.55;;
57573;SDS011;68988;49.000;21.242;2023-07-13T08:11:05;19.27;;;11.35;;
57573;SDS011;68988;49.000;21.242;2023-07-13T08:13:32;16.05;;;11.02;;
57573;SDS011;68988;49.000;21.242;2023-07-13T08:15:57;12.45;;;11.25;;
57573;SDS011;68988;49.000;21.242;2023-07-13T08:18:23;12.50;;;10.70;;
57573;SDS011;68988;49.000;21.242;2023-07-13T08:20:49;16.33;;;11.65;;
57573;SDS011;68988;49.000;21.242;2023-07-13T08:23:14;22.00;;;11.10;;
57573;SDS011;68988;49.000;21.242;2023-07-13T08:25:41;26.67;;;11.10;;
57573;SDS011;68988;49.000;21.242;2023-07-13T08:28:07;21.33;;;10.73;;
57573;SDS011;68988;49.000;21.242;2023-07-13T08:30:32;14.25;;;10.13;;
57573;SDS011;68988;49.000;21.242;2023-07-13T08:32:58;18.50;;;10.20;;
57573;SDS011;68988;49.000;21.242;2023-07-13T08:35:23;16.92;;;11.80;;
57573;SDS011;68988;49.000;21.242;2023-07-13T08:37:50;20.55;;;10.88;;
57573;SDS011;68988;49.000;21.242;2023-07-13T08:40:16;15.82;;;11.20;;
57573;SDS011;68988;49.000;21.242;2023-07-13T08:42:45;13.88;;;11.30;;
57573;SDS011;68988;49.000;21.242;2023-07-13T08:48:03;26.88;;;10.80;;
57573;SDS011;68988;49.000;21.242;2023-07-13T08:50:35;12.48;;;11.05;;
57573;SDS011;68988;49.000;21.242;2023-07-13T08:53:12;12.10;;;10.65;;
57573;SDS011;68988;49.000;21.242;2023-07-13T08:55:40;18.77;;;10.48;;
57573;SDS011;68988;49.000;21.242;2023-07-13T08:58:09;21.20;;;11.52;;
57573;SDS011;68988;49.000;21.242;2023-07-13T09:00:40;14.13;;;10.70;;
57573;SDS011;68988;49.000;21.242;2023-07-13T09:03:29;13.30;;;10.70;;
57573;SDS011;68988;49.000;21.242;2023-07-13T09:06:01;17.52;;;10.95;;
57573;SDS011;68988;49.000;21.242;2023-07-13T09:08:48;12.60;;;10.60;;
57573;SDS011;68988;49.000;21.242;2023-07-13T09:11:45;13.05;;;10.55;;
57573;SDS011;68988;49.000;21.242;2023-07-13T09:16:57;15.50;;;10.32;;
57573;SDS011;68988;49.000;21.242;2023-07-13T09:19:25;16.45;;;10.32;;
57573;SDS011;68988;49.000;21.242;2023-07-13T09:21:55;10.50;;;9.40;;
57573;SDS011;68988;49.000;21.242;2023-07-13T09:26:49;12.85;;;10.30;;
57573;SDS011;68988;49.000;21.242;2023-07-13T09:29:20;18.45;;;10.68;;
57573;SDS011;68988;49.000;21.242;2023-07-13T09:31:54;12.68;;;11.02;;
57573;SDS011;68988;49.000;21.242;2023-07-13T09:34:23;13.10;;;10.05;;
57573;SDS011;68988;49.000;21.242;2023-07-13T09:36:50;15.25;;;10.48;;
57573;SDS011;68988;49.000;21.242;2023-07-13T09:39:29;10.43;;;9.55;;
57573;SDS011;68988;49.000;21.242;2023-07-13T09:42:12;13.48;;;10.23;;
57573;SDS011;68988;49.000;21.242;2023-07-13T09:49:58;18.27;;;10.63;;
57573;SDS011;68988;49.000;21.242;2023-07-13T09:52:27;16.63;;;11.02;;
57573;SDS011;68988;49.000;21.242;2023-07-13T09:54:53;12.50;;;10.98;;
57573;SDS011;68988;49.000;21.242;2023-07-13T09:57:25;11.43;;;10.43;;
57573;SDS011;68988;49.000;21.242;2023-07-13T09:59:53;13.70;;;10.25;;
57573;SDS011;68988;49.000;21.242;2023-07-13T10:05:04;11.57;;;10.55;;
57573;SDS011;68988;49.000;21.242;2023-07-13T10:07:31;15.23;;;12.00;;
57573;SDS011;68988;49.000;21.242;2023-07-13T10:09:58;19.20;;;13.07;;
57573;SDS011;68988;49.000;21.242;2023-07-13T10:12:28;20.90;;;12.02;;
57573;SDS011;68988;49.000;21.242;2023-07-13T10:15:00;13.25;;;11.57;;
57573;SDS011;68988;49.000;21.242;2023-07-13T10:17:31;17.40;;;11.63;;
57573;SDS011;68988;49.000;21.242;2023-07-13T10:19:59;12.85;;;11.60;;
57573;SDS011;68988;49.000;21.242;2023-07-13T10:22:45;13.18;;;11.98;;
57573;SDS011;68988;49.000;21.242;2023-07-13T10:25:15;13.02;;;11.38;;
57573;SDS011;68988;49.000;21.242;2023-07-13T10:27:43;12.30;;;11.27;;
57573;SDS011;68988;49.000;21.242;2023-07-13T10:30:20;16.70;;;11.35;;
57573;SDS011;68988;49.000;21.242;2023-07-13T10:32:50;12.98;;;11.63;;
57573;SDS011;68988;49.000;21.242;2023-07-13T10:35:17;20.30;;;12.38;;
57573;SDS011;68988;49.000;21.242;2023-07-13T10:38:09;13.45;;;12.07;;
57573;SDS011;68988;49.000;21.242;2023-07-13T10:43:39;12.50;;;11.05;;
57573;SDS011;68988;49.000;21.242;2023-07-13T10:46:10;15.65;;;11.30;;
57573;SDS011;68988;49.000;21.242;2023-07-13T10:48:38;17.98;;;13.10;;
57573;SDS011;68988;49.000;21.242;2023-07-13T10:51:05;12.38;;;11.13;;
57573;SDS011;68988;49.000;21.242;2023-07-13T10:53:35;11.50;;;10.40;;
57573;SDS011;68988;49.000;21.242;2023-07-13T10:56:03;11.40;;;10.30;;
57573;SDS011;68988;49.000;21.242;2023-07-13T11:01:14;15.95;;;11.00;;
57573;SDS011;68988;49.000;21.242;2023-07-13T11:11:47;14.15;;;10.10;;
57573;SDS011;68988;49.000;21.242;2023-07-13T11:16:55;11.57;;;10.30;;
57573;SDS011;68988;49.000;21.242;2023-07-13T11:24:47;14.48;;;9.70;;
57573;SDS011;68988;49.000;21.242;2023-07-13T11:30:06;10.98;;;9.93;;
57573;SDS011;68988;49.000;21.242;2023-07-13T11:32:34;12.88;;;10.98;;
57573;SDS011;68988;49.000;21.242;2023-07-13T11:35:00;11.98;;;10.90;;
57573;SDS011;68988;49.000;21.242;2023-07-13T11:37:25;12.02;;;10.80;;
57573;SDS011;68988;49.000;21.242;2023-07-13T11:39:53;17.38;;;11.68;;
57573;SDS011;68988;49.000;21.242;2023-07-13T11:42:19;18.25;;;10.35;;
57573;SDS011;68988;49.000;21.242;2023-07-13T11:44:47;11.85;;;9.52;;
57573;SDS011;68988;49.000;21.242;2023-07-13T11:47:18;11.57;;;10.40;;
57573;SDS011;68988;49.000;21.242;2023-07-13T11:49:52;11.00;;;10.13;;
57573;SDS011;68988;49.000;21.242;2023-07-13T11:52:39;16.42;;;11.13;;
57573;SDS011;68988;49.000;21.242;2023-07-13T11:55:12;12.85;;;11.10;;
57573;SDS011;68988;49.000;21.242;2023-07-13T11:57:41;11.98;;;10.88;;
57573;SDS011;68988;49.000;21.242;2023-07-13T12:00:15;13.80;;;11.25;;
57573;SDS011;68988;49.000;21.242;2023-07-13T12:02:48;11.77;;;10.05;;
57573;SDS011;68988;49.000;21.242;2023-07-13T12:05:18;10.40;;;9.50;;
57573;SDS011;68988;49.000;21.242;2023-07-13T12:07:45;9.85;;;8.48;;
57573;SDS011;68988;49.000;21.242;2023-07-13T12:15:19;8.52;;;7.90;;
57573;SDS011;68988;49.000;21.242;2023-07-13T12:17:47;17.73;;;8.30;;
57573;SDS011;68988;49.000;21.242;2023-07-13T12:20:55;9.18;;;8.38;;
57573;SDS011;68988;49.000;21.242;2023-07-13T12:23:05;9.02;;;8.25;;
57573;SDS011;68988;49.000;21.242;2023-07-13T12:25:35;9.27;;;7.72;;
57573;SDS011;68988;49.000;21.242;2023-07-13T12:28:01;8.27;;;7.57;;
57573;SDS011;68988;49.000;21.242;2023-07-13T12:31:06;8.60;;;7.72;;
57573;SDS011;68988;49.000;21.242;2023-07-13T12:33:44;8.73;;;7.72;;
57573;SDS011;68988;49.000;21.242;2023-07-13T12:36:09;7.82;;;7.15;;
57573;SDS011;68988;49.000;21.242;2023-07-13T12:38:37;8.32;;;7.15;;
57573;SDS011;68988;49.000;21.242;2023-07-13T12:41:02;8.43;;;7.50;;
57573;SDS011;68988;49.000;21.242;2023-07-13T12:43:28;7.68;;;7.03;;
57573;SDS011;68988;49.000;21.242;2023-07-13T12:46:03;8.10;;;7.43;;
57573;SDS011;68988;49.000;21.242;2023-07-13T12:48:41;7.57;;;6.85;;
57573;SDS011;68988;49.000;21.242;2023-07-13T12:51:14;12.65;;;7.65;;
57573;SDS011;68988;49.000;21.242;2023-07-13T12:53:42;7.55;;;6.82;;
57573;SDS011;68988;49.000;21.242;2023-07-13T12:56:18;10.90;;;6.22;;
57573;SDS011;68988;49.000;21.242;2023-07-13T12:58:48;6.68;;;6.10;;
57573;SDS011;68988;49.000;21.242;2023-07-13T13:01:19;5.95;;;5.60;;
57573;SDS011;68988;49.000;21.242;2023-07-13T13:03:47;8.10;;;5.75;;
57573;SDS011;68988;49.000;21.242;2023-07-13T13:08:43;6.30;;;5.47;;
57573;SDS011;68988;49.000;21.242;2023-07-13T13:11:10;5.20;;;4.35;;
57573;SDS011;68988;49.000;21.242;2023-07-13T13:13:36;10.80;;;4.85;;
57573;SDS011;68988;49.000;21.242;2023-07-13T13:16:23;7.32;;;4.05;;
57573;SDS011;68988;49.000;21.242;2023-07-13T13:18:59;4.20;;;3.90;;
57573;SDS011;68988;49.000;21.242;2023-07-13T13:21:46;6.75;;;3.90;;
57573;SDS011;68988;49.000;21.242;2023-07-13T13:24:16;4.00;;;3.33;;
57573;SDS011;68988;49.000;21.242;2023-07-13T13:26:45;3.78;;;3.38;;
57573;SDS011;68988;49.000;21.242;2023-07-13T13:29:15;12.50;;;3.05;;
57573;SDS011;68988;49.000;21.242;2023-07-13T13:31:42;3.85;;;2.90;;
57573;SDS011;68988;49.000;21.242;2023-07-13T13:34:12;5.53;;;2.50;;
57573;SDS011;68988;49.000;21.242;2023-07-13T13:36:39;5.30;;;2.42;;
57573;SDS011;68988;49.000;21.242;2023-07-13T13:39:18;2.25;;;2.13;;
57573;SDS011;68988;49.000;21.242;2023-07-13T13:41:54;3.95;;;2.13;;
57573;SDS011;68988;49.000;21.242;2023-07-13T13:44:20;6.35;;;2.20;;
57573;SDS011;68988;49.000;21.242;2023-07-13T13:46:47;4.38;;;2.40;;
57573;SDS011;68988;49.000;21.242;2023-07-13T13:49:25;4.18;;;2.42;;
57573;SDS011;68988;49.000;21.242;2023-07-13T13:51:52;6.22;;;2.50;;
57573;SDS011;68988;49.000;21.242;2023-07-13T13:54:19;4.03;;;2.50;;
57573;SDS011;68988;49.000;21.242;2023-07-13T13:56:46;4.18;;;2.20;;
57573;SDS011;68988;49.000;21.242;2023-07-13T13:59:13;5.20;;;2.35;;
57573;SDS011;68988;49.000;21.242;2023-07-13T14:01:39;3.22;;;2.10;;
57573;SDS011;68988;49.000;21.242;2023-07-13T14:04:06;2.20;;;1.88;;
57573;SDS011;68988;49.000;21.242;2023-07-13T14:06:32;1.63;;;1.50;;
57573;SDS011;68988;49.000;21.242;2023-07-13T14:08:59;1.67;;;1.50;;
57573;SDS011;68988;49.000;21.242;2023-07-13T14:11:26;1.65;;;1.48;;
57573;SDS011;68988;49.000;21.242;2023-07-13T14:13:53;1.60;;;1.50;;
57573;SDS011;68988;49.000;21.242;2023-07-13T14:16:21;1.45;;;1.35;;
57573;SDS011;68988;49.000;21.242;2023-07-13T14:18:52;1.73;;;1.42;;
57573;SDS011;68988;49.000;21.242;2023-07-13T14:21:19;3.05;;;1.35;;
57573;SDS011;68988;49.000;21.242;2023-07-13T14:23:47;7.45;;;1.83;;
57573;SDS011;68988;49.000;21.242;2023-07-13T14:26:17;1.52;;;1.20;;
57573;SDS011;68988;49.000;21.242;2023-07-13T14:28:45;2.00;;;1.10;;
57573;SDS011;68988;49.000;21.242;2023-07-13T14:31:13;3.10;;;1.27;;
57573;SDS011;68988;49.000;21.242;2023-07-13T14:33:40;2.92;;;1.40;;
57573;SDS011;68988;49.000;21.242;2023-07-13T14:38:55;1.58;;;1.17;;
57573;SDS011;68988;49.000;21.242;2023-07-13T14:41:22;1.60;;;1.33;;
57573;SDS011;68988;49.000;21.242;2023-07-13T14:43:48;2.15;;;1.45;;
57573;SDS011;68988;49.000;21.242;2023-07-13T14:46:29;2.78;;;1.30;;
57573;SDS011;68988;49.000;21.242;2023-07-13T14:51:32;1.20;;;1.10;;
57573;SDS011;68988;49.000;21.242;2023-07-13T14:54:03;4.00;;;1.17;;
57573;SDS011;68988;49.000;21.242;2023-07-13T14:56:30;1.35;;;1.20;;
57573;SDS011;68988;49.000;21.242;2023-07-13T14:58:55;3.88;;;1.02;;
57573;SDS011;68988;49.000;21.242;2023-07-13T15:01:21;2.25;;;1.10;;
57573;SDS011;68988;49.000;21.242;2023-07-13T15:03:48;4.00;;;1.20;;
57573;SDS011;68988;49.000;21.242;2023-07-13T15:06:16;4.20;;;1.08;;
57573;SDS011;68988;49.000;21.242;2023-07-13T15:08:42;0.85;;;0.85;;
57573;SDS011;68988;49.000;21.242;2023-07-13T15:11:08;2.15;;;0.90;;
57573;SDS011;68988;49.000;21.242;2023-07-13T15:13:36;0.88;;;0.88;;
57573;SDS011;68988;49.000;21.242;2023-07-13T15:16:03;1.00;;;0.90;;
57573;SDS011;68988;49.000;21.242;2023-07-13T15:18:29;0.90;;;0.90;;
57573;SDS011;68988;49.000;21.242;2023-07-13T15:20:55;1.95;;;1.00;;
57573;SDS011;68988;49.000;21.242;2023-07-13T15:23:22;2.45;;;1.13;;
57573;SDS011;68988;49.000;21.242;2023-07-13T15:25:48;1.67;;;1.00;;